createdAt,value
2023-01-05T00:00:09.409Z,9.79
2023-01-05T00:02:35.998Z,9.50
2023-01-05T00:05:02.523Z,9.89
2023-01-05T00:07:28.967Z,9.88
2023-01-05T00:09:55.409Z,9.91
2023-01-05T00:12:40.596Z,9.28
2023-01-05T00:15:27.774Z,9.55
2023-01-05T00:18:23.382Z,9.35
2023-01-05T00:21:08.223Z,9.75
2023-01-05T00:23:34.645Z,9.52
2023-01-05T00:26:01.114Z,9.10
2023-01-05T00:28:27.560Z,9.65
2023-01-05T00:30:54.032Z,9.33
2023-01-05T00:33:20.462Z,9.73
2023-01-05T00:35:46.986Z,9.35
2023-01-05T00:38:13.476Z,9.75
2023-01-05T00:40:40.070Z,9.35
2023-01-05T00:43:06.607Z,9.44
2023-01-05T00:45:34.273Z,9.26
2023-01-05T00:48:00.785Z,9.66
2023-01-05T00:50:27.475Z,9.53
2023-01-05T00:52:54.035Z,9.32
2023-01-05T00:55:20.523Z,10.18
2023-01-05T00:57:47.087Z,9.75
2023-01-05T01:00:17.224Z,9.41
2023-01-05T01:02:44.048Z,9.48
2023-01-05T01:05:10.996Z,9.87
2023-01-05T01:07:37.528Z,9.44
2023-01-05T01:10:04.295Z,9.47
2023-01-05T01:12:30.856Z,9.49
2023-01-05T01:14:57.354Z,9.76
2023-01-05T01:17:23.823Z,9.89
2023-01-05T01:19:50.306Z,9.66
2023-01-05T01:22:16.779Z,9.89
2023-01-05T01:24:43.310Z,9.72
2023-01-05T01:27:09.871Z,9.75
2023-01-05T01:29:36.335Z,9.49
2023-01-05T01:32:03.048Z,9.43
2023-01-05T01:34:29.791Z,9.56
2023-01-05T01:36:56.596Z,9.64
2023-01-05T01:39:23.366Z,9.78
2023-01-05T01:41:49.979Z,9.66
2023-01-05T01:44:47.653Z,9.68
2023-01-05T01:47:24.518Z,9.83
2023-01-05T01:49:51.491Z,9.80
2023-01-05T01:52:18.373Z,9.90
2023-01-05T01:54:45.697Z,9.34
2023-01-05T01:57:13.272Z,9.44
2023-01-05T01:59:40.061Z,9.62
2023-01-05T02:02:07.018Z,9.43
2023-01-05T02:04:33.774Z,9.59
2023-01-05T02:07:01.612Z,9.35
2023-01-05T02:09:28.171Z,9.82
2023-01-05T02:12:03.618Z,9.66
2023-01-05T02:14:42.709Z,10.11
2023-01-05T02:17:30.772Z,9.64
2023-01-05T02:20:22.341Z,10.05
2023-01-05T02:23:15.246Z,9.43
2023-01-05T02:26:03.330Z,9.93
2023-01-05T02:28:39.353Z,9.32
2023-01-05T02:31:19.465Z,9.42
2023-01-05T02:34:05.111Z,9.41
2023-01-05T02:36:54.914Z,9.15
2023-01-05T02:39:27.011Z,9.57
2023-01-05T02:42:07.871Z,9.69
2023-01-05T02:44:35.350Z,8.87
2023-01-05T02:47:05.985Z,9.03
2023-01-05T02:49:35.996Z,9.74
2023-01-05T02:52:03.755Z,9.26
2023-01-05T02:54:46.922Z,9.11
2023-01-05T02:57:48.088Z,9.60
2023-01-05T03:00:19.549Z,9.25
2023-01-05T03:02:49.611Z,9.35
2023-01-05T03:05:26.769Z,9.20
2023-01-05T03:07:54.854Z,8.85
2023-01-05T03:10:40.378Z,9.56
2023-01-05T03:13:26.482Z,9.39
2023-01-05T03:16:01.934Z,9.34
2023-01-05T03:18:28.820Z,9.68
2023-01-05T03:20:55.476Z,9.11
2023-01-05T03:23:41.059Z,9.32
2023-01-05T03:26:27.213Z,9.12
2023-01-05T03:29:17.544Z,9.21
2023-01-05T03:32:24.169Z,9.38
2023-01-05T03:35:19.792Z,9.46
2023-01-05T03:38:05.002Z,9.51
2023-01-05T03:40:33.774Z,10.04
2023-01-05T03:43:01.027Z,9.19
2023-01-05T03:45:36.849Z,9.46
2023-01-05T03:48:03.441Z,9.47
2023-01-05T03:50:29.979Z,9.65
2023-01-05T03:52:56.473Z,9.43
2023-01-05T03:55:23.117Z,9.73
2023-01-05T03:57:49.686Z,9.59
2023-01-05T04:00:16.447Z,9.65
2023-01-05T04:02:43.062Z,9.57
2023-01-05T04:05:09.878Z,10.00
2023-01-05T04:07:36.314Z,9.34
2023-01-05T04:10:02.970Z,9.18
2023-01-05T04:12:29.393Z,9.31
2023-01-05T04:14:55.858Z,9.31
2023-01-05T04:17:22.308Z,9.23
2023-01-05T04:19:48.818Z,9.13
2023-01-05T04:22:15.270Z,9.18
2023-01-05T04:24:41.725Z,9.12
2023-01-05T04:27:08.180Z,9.27
2023-01-05T04:29:34.671Z,9.04
2023-01-05T04:32:01.117Z,9.40
2023-01-05T04:34:27.576Z,9.12
2023-01-05T04:36:54.041Z,9.64
2023-01-05T04:39:20.499Z,9.49
2023-01-05T04:41:48.680Z,9.22
2023-01-05T04:44:15.348Z,9.25
2023-01-05T04:46:42.123Z,9.41
2023-01-05T04:49:10.070Z,8.98
2023-01-05T04:51:36.593Z,9.25
2023-01-05T04:54:03.117Z,9.13
2023-01-05T04:56:29.603Z,9.50
2023-01-05T04:58:56.058Z,9.08
2023-01-05T05:01:22.615Z,9.02
2023-01-05T05:03:49.128Z,9.33
2023-01-05T05:06:17.539Z,9.28
2023-01-05T05:08:43.997Z,9.66
2023-01-05T05:11:10.619Z,9.34
2023-01-05T05:13:37.070Z,9.02
2023-01-05T05:16:03.675Z,9.77
2023-01-05T05:18:30.169Z,9.52
2023-01-05T05:20:56.693Z,9.22
2023-01-05T05:23:23.195Z,9.53
2023-01-05T05:25:51.286Z,9.58
2023-01-05T05:28:19.126Z,9.31
2023-01-05T05:30:45.646Z,9.28
2023-01-05T05:33:12.070Z,9.29
2023-01-05T05:35:38.521Z,9.42
2023-01-05T05:38:04.968Z,9.42
2023-01-05T05:40:31.434Z,9.45
2023-01-05T05:42:57.891Z,9.35
2023-01-05T05:45:24.361Z,9.66
2023-01-05T05:47:50.862Z,9.24
2023-01-05T05:50:17.372Z,9.80
2023-01-05T05:52:45.141Z,9.62
2023-01-05T05:55:11.666Z,9.06
2023-01-05T05:57:38.561Z,8.78
2023-01-05T06:00:05.548Z,9.16
2023-01-05T06:02:32.078Z,9.26
2023-01-05T06:04:58.585Z,9.13
2023-01-05T06:07:25.039Z,9.37
2023-01-05T06:09:51.482Z,8.96
2023-01-05T06:12:18.044Z,9.19
2023-01-05T06:14:44.590Z,9.30
2023-01-05T06:17:11.064Z,9.10
2023-01-05T06:19:37.595Z,9.15
2023-01-05T06:22:04.104Z,9.36
2023-01-05T06:24:30.590Z,8.92
2023-01-05T06:26:57.073Z,8.89
2023-01-05T06:29:23.551Z,9.18
2023-01-05T06:31:50.096Z,9.42
2023-01-05T06:34:16.567Z,9.10
2023-01-05T06:36:43.052Z,8.94
2023-01-05T06:39:09.533Z,9.25
2023-01-05T06:41:36.038Z,9.08
2023-01-05T06:44:02.596Z,8.78
2023-01-05T06:46:29.092Z,8.94
2023-01-05T06:48:55.568Z,9.16
2023-01-05T06:51:22.055Z,8.97
2023-01-05T06:53:48.570Z,9.11
2023-01-05T06:56:15.063Z,8.85
2023-01-05T06:58:41.514Z,8.59
2023-01-05T07:01:08.092Z,9.10
2023-01-05T07:03:34.644Z,9.10
2023-01-05T07:06:01.158Z,8.94
2023-01-05T07:08:27.583Z,8.72
2023-01-05T07:10:54.044Z,8.54
2023-01-05T07:13:20.604Z,8.19
2023-01-05T07:15:47.113Z,8.37
2023-01-05T07:18:13.576Z,8.50
2023-01-05T07:20:40.436Z,8.27
2023-01-05T07:23:06.893Z,8.67
2023-01-05T07:25:33.368Z,8.35
2023-01-05T07:27:59.876Z,8.08
2023-01-05T07:30:26.474Z,7.92
2023-01-05T07:32:52.990Z,8.08
2023-01-05T07:35:19.453Z,8.27
2023-01-05T07:37:46.029Z,7.49
2023-01-05T07:40:12.798Z,7.95
2023-01-05T07:42:39.275Z,7.51
2023-01-05T07:45:06.781Z,7.32
2023-01-05T07:47:33.453Z,6.90
2023-01-05T07:49:59.958Z,7.04
2023-01-05T07:52:29.399Z,7.04
2023-01-05T07:54:55.835Z,6.98
2023-01-05T07:57:22.302Z,6.91
2023-01-05T07:59:48.771Z,6.81
2023-01-05T08:02:15.435Z,6.65
2023-01-05T08:04:42.106Z,6.72
2023-01-05T08:07:11.255Z,6.59
2023-01-05T08:09:57.069Z,6.60
2023-01-05T08:12:23.619Z,6.42
2023-01-05T08:14:50.084Z,6.60
2023-01-05T08:17:16.553Z,6.26
2023-01-05T08:19:43.012Z,6.48
2023-01-05T08:22:09.511Z,6.73
2023-01-05T08:24:35.958Z,6.60
2023-01-05T08:27:02.452Z,6.49
2023-01-05T08:29:29.002Z,6.49
2023-01-05T08:31:55.538Z,6.69
2023-01-05T08:34:22.200Z,6.86
2023-01-05T08:36:48.742Z,6.21
2023-01-05T08:39:15.175Z,6.16
2023-01-05T08:41:42.131Z,6.63
2023-01-05T08:44:12.789Z,6.12
2023-01-05T08:46:39.257Z,6.29
2023-01-05T08:49:07.225Z,6.61
2023-01-05T08:51:34.065Z,6.62
2023-01-05T08:54:00.767Z,6.57
2023-01-05T08:56:30.532Z,6.62
2023-01-05T08:58:59.757Z,6.80
2023-01-05T09:01:26.643Z,6.40
2023-01-05T09:03:53.315Z,6.50
2023-01-05T09:06:20.146Z,6.61
2023-01-05T09:08:46.867Z,6.69
2023-01-05T09:11:14.719Z,6.75
2023-01-05T09:13:42.550Z,7.12
2023-01-05T09:16:12.185Z,6.52
2023-01-05T09:18:40.201Z,6.49
2023-01-05T09:21:07.333Z,6.83
2023-01-05T09:23:36.021Z,6.41
2023-01-05T09:26:10.437Z,6.86
2023-01-05T09:28:37.161Z,6.63
2023-01-05T09:31:13.037Z,6.38
2023-01-05T09:33:40.441Z,6.85
2023-01-05T09:36:07.721Z,6.97
2023-01-05T09:38:34.391Z,7.06
2023-01-05T09:41:15.238Z,7.10
2023-01-05T09:43:43.113Z,7.32
2023-01-05T09:46:14.585Z,6.69
2023-01-05T09:48:43.840Z,6.98
2023-01-05T09:51:10.695Z,6.78
2023-01-05T09:53:37.287Z,7.03
2023-01-05T09:56:04.563Z,6.95
2023-01-05T09:58:35.198Z,7.09
2023-01-05T10:01:09.509Z,7.55
2023-01-05T10:04:05.074Z,7.12
2023-01-05T10:06:34.805Z,7.37
2023-01-05T10:09:02.754Z,7.36
2023-01-05T10:11:58.066Z,7.11
2023-01-05T10:14:30.625Z,6.97
2023-01-05T10:17:22.439Z,7.04
2023-01-05T10:19:44.043Z,7.32
2023-01-05T10:22:38.430Z,7.10
2023-01-05T10:25:24.799Z,6.57
2023-01-05T10:28:27.778Z,6.91
2023-01-05T10:31:02.450Z,6.84
2023-01-05T10:33:52.551Z,7.77
2023-01-05T10:37:06.778Z,7.66
2023-01-05T10:39:39.866Z,7.83
2023-01-05T10:42:14.563Z,7.35
2023-01-05T10:44:52.983Z,7.35
2023-01-05T10:47:21.115Z,8.03
2023-01-05T10:49:48.491Z,7.34
2023-01-05T10:52:17.585Z,7.24
2023-01-05T10:54:48.762Z,7.26
2023-01-05T10:57:35.680Z,7.61
2023-01-05T11:00:17.700Z,7.60
2023-01-05T11:02:50.393Z,7.64
2023-01-05T11:05:33.595Z,7.85
2023-01-05T11:08:02.555Z,7.75
2023-01-05T11:10:30.814Z,7.92
2023-01-05T11:13:17.766Z,7.71
2023-01-05T11:15:51.175Z,7.71
2023-01-05T11:18:25.926Z,8.05
2023-01-05T11:21:11.401Z,8.09
2023-01-05T11:23:46.781Z,7.66
2023-01-05T11:26:19.420Z,7.91
2023-01-05T11:29:01.103Z,7.76
2023-01-05T11:31:33.322Z,7.63
2023-01-05T11:34:06.999Z,7.83
2023-01-05T11:36:33.549Z,7.78
2023-01-05T11:39:00.049Z,7.60
2023-01-05T11:41:26.604Z,8.53
2023-01-05T11:43:54.476Z,8.09
2023-01-05T11:46:21.640Z,7.59
2023-01-05T11:48:52.829Z,7.61
2023-01-05T11:51:40.039Z,8.47
2023-01-05T11:54:26.460Z,8.02
2023-01-05T11:57:15.926Z,8.11
2023-01-05T11:59:43.746Z,7.98
2023-01-05T12:02:22.568Z,8.44
2023-01-05T12:05:07.846Z,8.08
2023-01-05T12:07:43.038Z,8.33
2023-01-05T12:10:12.586Z,8.22
2023-01-05T12:13:11.888Z,7.98
2023-01-05T12:16:02.557Z,8.39
2023-01-05T12:18:50.101Z,8.22
2023-01-05T12:21:23.385Z,8.29
2023-01-05T12:24:16.288Z,7.81
2023-01-05T12:26:51.133Z,8.02
2023-01-05T12:33:44.337Z,8.23
2023-01-05T12:35:25.886Z,8.13
2023-01-05T12:38:30.354Z,8.18
2023-01-05T12:41:13.831Z,8.19
2023-01-05T12:43:50.935Z,8.11
2023-01-05T12:46:23.534Z,8.02
2023-01-05T12:49:01.306Z,7.98
2023-01-05T12:51:35.853Z,7.79
2023-01-05T12:54:10.678Z,7.84
2023-01-05T12:56:58.829Z,8.04
2023-01-05T12:59:43.967Z,8.02
2023-01-05T13:02:28.729Z,7.82
2023-01-05T13:04:57.072Z,7.94
2023-01-05T13:07:32.633Z,8.42
2023-01-05T13:10:04.182Z,8.21
2023-01-05T13:12:32.196Z,8.38
2023-01-05T13:15:07.594Z,8.04
2023-01-05T13:17:37.198Z,8.24
2023-01-05T13:20:42.407Z,8.02
2023-01-05T13:23:17.126Z,8.22
2023-01-05T13:25:55.852Z,8.20
2023-01-05T13:28:24.547Z,7.99
2023-01-05T13:31:04.846Z,7.99
2023-01-05T13:33:45.072Z,8.06
2023-01-05T13:36:33.292Z,8.08
2023-01-05T13:39:10.665Z,7.95
2023-01-05T13:42:08.580Z,7.79
2023-01-05T13:44:44.947Z,8.04
2023-01-05T13:47:28.017Z,8.14
2023-01-05T13:50:19.819Z,7.83
2023-01-05T13:53:03.872Z,8.13
2023-01-05T13:55:32.181Z,8.08
2023-01-05T13:57:58.738Z,8.11
2023-01-05T14:00:38.257Z,7.96
2023-01-05T14:03:15.841Z,7.81
2023-01-05T14:05:52.279Z,7.78
2023-01-05T14:08:52.628Z,8.31
2023-01-05T14:11:21.806Z,7.41
2023-01-05T14:13:54.365Z,8.05
2023-01-05T14:16:44.246Z,8.21
2023-01-05T14:19:33.412Z,8.09
2023-01-05T14:22:20.217Z,8.34
2023-01-05T14:24:49.579Z,8.42
2023-01-05T14:27:23.741Z,8.04
2023-01-05T14:32:21.503Z,8.67
2023-01-05T14:34:53.602Z,8.45
2023-01-05T14:37:34.126Z,8.11
2023-01-05T14:40:08.800Z,8.20
2023-01-05T14:42:39.655Z,8.46
2023-01-05T14:45:08.398Z,8.51
2023-01-05T14:47:44.007Z,8.50
2023-01-05T14:50:33.510Z,8.41
2023-01-05T14:53:11.185Z,8.06
2023-01-05T14:55:40.481Z,8.49
2023-01-05T14:58:35.662Z,8.90
2023-01-05T15:01:19.242Z,8.43
2023-01-05T15:04:27.358Z,8.48
2023-01-05T15:07:15.290Z,8.34
2023-01-05T15:10:10.454Z,8.71
2023-01-05T15:12:52.994Z,8.80
2023-01-05T15:15:22.544Z,8.43
2023-01-05T15:18:00.093Z,8.70
2023-01-05T15:20:52.284Z,8.93
2023-01-05T15:23:59.721Z,9.07
2023-01-05T15:26:45.102Z,8.79
2023-01-05T15:29:30.289Z,8.59
2023-01-05T15:32:00.546Z,8.21
2023-01-05T15:34:34.609Z,8.47
2023-01-05T15:37:35.317Z,8.38
2023-01-05T15:40:04.396Z,9.24
2023-01-05T15:42:39.181Z,8.68
2023-01-05T15:45:28.075Z,8.74
2023-01-05T15:47:56.832Z,9.27
2023-01-05T15:50:27.691Z,8.84
2023-01-05T15:52:59.653Z,8.69
2023-01-05T15:55:27.893Z,9.02
2023-01-05T15:58:00.026Z,8.73
2023-01-05T16:00:29.305Z,9.47
2023-01-05T16:02:55.831Z,9.40
2023-01-05T16:05:32.711Z,9.28
2023-01-05T16:08:08.256Z,9.42
2023-01-05T16:10:44.269Z,9.57
2023-01-05T16:13:19.585Z,9.74
2023-01-05T16:15:49.862Z,9.81
2023-01-05T16:18:20.002Z,9.67
2023-01-05T16:20:49.811Z,9.57
2023-01-05T16:23:22.253Z,9.83
2023-01-05T16:25:57.614Z,9.78
2023-01-05T16:28:25.124Z,9.81
2023-01-05T16:30:53.613Z,9.77
2023-01-05T16:33:39.294Z,9.84
2023-01-05T16:36:20.912Z,9.46
2023-01-05T16:38:48.088Z,9.60
2023-01-05T16:41:23.070Z,9.50
2023-01-05T16:43:56.061Z,9.78
2023-01-05T16:46:26.512Z,9.83
2023-01-05T16:48:55.439Z,9.82
2023-01-05T16:51:23.974Z,9.84
2023-01-05T16:53:54.290Z,9.79
2023-01-05T16:56:42.289Z,9.89
2023-01-05T16:59:39.739Z,9.84
2023-01-05T17:02:26.153Z,9.42
2023-01-05T17:04:52.605Z,9.87
2023-01-05T17:07:20.097Z,9.88
2023-01-05T17:09:46.820Z,9.79
2023-01-05T17:12:13.929Z,9.85
2023-01-05T17:14:41.421Z,9.76
2023-01-05T17:17:14.262Z,9.74
2023-01-05T17:19:41.120Z,9.80
2023-01-05T17:22:11.542Z,9.80
2023-01-05T17:24:39.315Z,10.00
2023-01-05T17:27:05.864Z,10.06
2023-01-05T17:29:33.116Z,10.05
2023-01-05T17:32:00.262Z,10.16
2023-01-05T17:34:26.973Z,10.15
2023-01-05T17:36:56.868Z,9.86
2023-01-05T17:39:24.341Z,9.98
2023-01-05T17:42:14.718Z,9.72
2023-01-05T17:44:41.170Z,9.84
2023-01-05T17:47:07.706Z,9.84
2023-01-05T17:49:34.281Z,9.96
2023-01-05T17:52:00.810Z,10.06
2023-01-05T17:54:27.262Z,9.89
2023-01-05T17:56:53.711Z,9.89
2023-01-05T17:59:20.172Z,10.02
2023-01-05T18:04:17.972Z,9.85
2023-01-05T18:06:44.410Z,9.90
2023-01-05T18:09:10.867Z,9.88
2023-01-05T18:11:37.300Z,10.06
2023-01-05T18:14:03.783Z,9.99
2023-01-05T18:18:56.580Z,10.13
2023-01-05T18:21:26.134Z,10.09
2023-01-05T18:23:52.609Z,10.07
2023-01-05T18:26:19.099Z,9.95
2023-01-05T18:28:45.609Z,9.90
2023-01-05T18:31:16.256Z,9.39
2023-01-05T18:33:43.058Z,9.83
2023-01-05T18:36:13.696Z,9.83
2023-01-05T18:38:40.887Z,10.00
2023-01-05T18:41:08.266Z,9.69
2023-01-05T18:43:36.013Z,9.45
2023-01-05T18:46:02.815Z,9.35
2023-01-05T18:48:29.425Z,9.30
2023-01-05T18:50:57.085Z,9.11
2023-01-05T18:53:23.913Z,9.04
2023-01-05T18:55:50.374Z,8.93
2023-01-05T18:58:18.140Z,8.97
2023-01-05T19:00:45.929Z,9.07
2023-01-05T19:03:12.557Z,9.06
2023-01-05T19:05:42.910Z,9.03
2023-01-05T19:08:10.839Z,8.91
2023-01-05T19:10:37.777Z,8.74
2023-01-05T19:13:04.553Z,8.78
2023-01-05T19:15:33.655Z,8.97
2023-01-05T19:18:00.174Z,8.78
2023-01-05T19:20:26.677Z,8.61
2023-01-05T19:22:53.176Z,8.36
2023-01-05T19:25:19.689Z,8.31
2023-01-05T19:27:46.275Z,8.34
2023-01-05T19:30:14.941Z,8.00
2023-01-05T19:32:41.449Z,8.13
2023-01-05T19:35:08.107Z,8.02
2023-01-05T19:37:35.646Z,8.14
2023-01-05T19:40:02.827Z,7.95
2023-01-05T19:42:31.303Z,7.97
2023-01-05T19:44:57.746Z,7.89
2023-01-05T19:47:24.203Z,7.78
2023-01-05T19:49:50.710Z,7.77
2023-01-05T19:52:17.157Z,7.49
2023-01-05T19:54:43.668Z,7.41
2023-01-05T19:57:10.187Z,7.38
2023-01-05T19:59:36.714Z,7.44
2023-01-05T20:02:05.029Z,7.39
2023-01-05T20:04:32.300Z,7.34
2023-01-05T20:06:58.901Z,7.52
2023-01-05T20:09:25.757Z,7.46
2023-01-05T20:11:59.478Z,7.48
2023-01-05T20:14:32.663Z,7.24
2023-01-05T20:17:01.543Z,7.36
2023-01-05T20:19:29.598Z,7.34
2023-01-05T20:21:57.487Z,7.37
2023-01-05T20:24:29.260Z,7.26
2023-01-05T20:27:01.773Z,7.60
2023-01-05T20:29:29.198Z,7.52
2023-01-05T20:32:01.921Z,7.45
2023-01-05T20:34:32.181Z,7.57
2023-01-05T20:36:59.873Z,7.76
2023-01-05T20:39:26.478Z,7.81
2023-01-05T20:41:54.014Z,7.86
2023-01-05T20:44:25.504Z,8.00
2023-01-05T20:46:53.876Z,8.01
2023-01-05T20:49:21.525Z,7.61
2023-01-05T20:51:48.025Z,7.90
2023-01-05T20:54:15.412Z,7.92
2023-01-05T20:56:43.754Z,7.72
2023-01-05T20:59:16.081Z,8.05
2023-01-05T21:01:42.613Z,7.85
2023-01-05T21:04:09.137Z,7.73
2023-01-05T21:06:35.680Z,8.00
2023-01-05T21:09:03.521Z,8.14
2023-01-05T21:11:29.983Z,8.02
2023-01-05T21:13:57.667Z,7.85
2023-01-05T21:16:30.663Z,7.84
2023-01-05T21:18:58.449Z,8.01
2023-01-05T21:21:26.923Z,7.93
2023-01-05T21:23:54.437Z,8.09
2023-01-05T21:26:22.082Z,8.05
2023-01-05T21:28:50.819Z,8.00
2023-01-05T21:31:19.655Z,8.06
2023-01-05T21:33:46.882Z,7.93
2023-01-05T21:36:22.326Z,7.78
2023-01-05T21:39:01.125Z,7.65
2023-01-05T21:41:49.688Z,7.98
2023-01-05T21:44:16.226Z,8.07
2023-01-05T21:46:43.157Z,8.20
2023-01-05T21:49:10.686Z,8.45
2023-01-05T21:51:55.728Z,8.41
2023-01-05T21:54:41.520Z,8.41
2023-01-05T21:57:07.969Z,8.31
2023-01-05T21:59:34.925Z,8.52
2023-01-05T22:02:01.861Z,8.01
2023-01-05T22:04:28.524Z,8.14
2023-01-05T22:06:54.989Z,8.30
2023-01-05T22:09:21.542Z,7.92
2023-01-05T22:11:48.025Z,8.08
2023-01-05T22:14:15.888Z,7.87
2023-01-05T22:16:42.510Z,8.16
2023-01-05T22:19:11.622Z,8.11
2023-01-05T22:21:40.843Z,8.19
2023-01-05T22:24:08.962Z,8.43
2023-01-05T22:26:35.426Z,8.38
2023-01-05T22:29:01.896Z,8.41
2023-01-05T22:31:29.910Z,8.43
2023-01-05T22:33:58.900Z,8.26
2023-01-05T22:36:27.747Z,8.51
2023-01-05T22:38:55.543Z,8.13
2023-01-05T22:41:30.204Z,8.35
2023-01-05T22:43:59.297Z,8.16
2023-01-05T22:46:27.905Z,8.42
2023-01-05T22:48:56.343Z,8.43
2023-01-05T22:51:27.121Z,8.38
2023-01-05T22:53:54.120Z,7.89
2023-01-05T22:56:21.978Z,8.36
2023-01-05T22:58:48.572Z,8.45
2023-01-05T23:01:21.816Z,8.44
2023-01-05T23:03:48.900Z,8.61
2023-01-05T23:06:16.047Z,8.78
2023-01-05T23:08:43.250Z,8.45
2023-01-05T23:11:12.835Z,8.48
2023-01-05T23:13:39.596Z,8.22
2023-01-05T23:16:06.452Z,8.16
2023-01-05T23:18:35.026Z,7.97
2023-01-05T23:21:05.496Z,8.23
2023-01-05T23:23:32.408Z,8.41
2023-01-05T23:25:59.690Z,8.37
2023-01-05T23:28:28.073Z,8.65
2023-01-05T23:30:57.446Z,8.50
2023-01-05T23:33:26.471Z,8.65
2023-01-05T23:35:53.906Z,8.18
2023-01-05T23:38:21.765Z,8.16
2023-01-05T23:40:50.097Z,8.10
2023-01-05T23:43:18.872Z,8.19
2023-01-05T23:45:46.054Z,8.04
2023-01-05T23:48:13.102Z,8.45
2023-01-05T23:50:47.766Z,8.66
2023-01-05T23:53:14.814Z,8.07
2023-01-05T23:55:41.861Z,7.90
2023-01-05T23:58:09.189Z,8.43
